sensor_id;sensor_type;location;lat;lon;timestamp;temperature;humidity
12254;DHT22;6189;52.526;13.390;2023-03-23T00:02:25;15.00;99.90
12254;DHT22;6189;52.526;13.390;2023-03-23T00:05:11;14.90;99.90
12254;DHT22;6189;52.526;13.390;2023-03-23T00:07:57;14.80;99.90
12254;DHT22;6189;52.526;13.390;2023-03-23T00:10:43;14.90;99.90
12254;DHT22;6189;52.526;13.390;2023-03-23T00:13:31;14.80;99.90
12254;DHT22;6189;52.526;13.390;2023-03-23T00:16:18;14.80;99.90
12254;DHT22;6189;52.526;13.390;2023-03-23T00:19:06;14.80;99.90
12254;DHT22;6189;52.526;13.390;2023-03-23T00:21:51;14.90;99.90
12254;DHT22;6189;52.526;13.390;2023-03-23T00:24:37;14.80;99.90
12254;DHT22;6189;52.526;13.390;2023-03-23T00:27:23;14.70;99.90
12254;DHT22;6189;52.526;13.390;2023-03-23T00:30:11;14.80;99.90
12254;DHT22;6189;52.526;13.390;2023-03-23T00:32:56;14.80;99.90
12254;DHT22;6189;52.526;13.390;2023-03-23T00:35:42;14.80;99.90
12254;DHT22;6189;52.526;13.390;2023-03-23T00:38:28;14.80;99.90
12254;DHT22;6189;52.526;13.390;2023-03-23T00:41:14;14.70;99.90
12254;DHT22;6189;52.526;13.390;2023-03-23T00:44:00;14.60;99.90
12254;DHT22;6189;52.526;13.390;2023-03-23T00:46:47;14.60;99.90
12254;DHT22;6189;52.526;13.390;2023-03-23T00:49:32;14.60;99.90
12254;DHT22;6189;52.526;13.390;2023-03-23T00:52:19;14.60;99.90
12254;DHT22;6189;52.526;13.390;2023-03-23T00:55:06;14.60;99.90
12254;DHT22;6189;52.526;13.390;2023-03-23T00:57:51;14.50;99.90
12254;DHT22;6189;52.526;13.390;2023-03-23T01:00:38;14.60;99.90
12254;DHT22;6189;52.526;13.390;2023-03-23T01:03:25;14.60;99.90
12254;DHT22;6189;52.526;13.390;2023-03-23T01:06:12;14.50;99.90
12254;DHT22;6189;52.526;13.390;2023-03-23T01:08:58;14.40;99.90
12254;DHT22;6189;52.526;13.390;2023-03-23T01:11:46;14.40;99.90
12254;DHT22;6189;52.526;13.390;2023-03-23T01:14:32;14.30;99.90
12254;DHT22;6189;52.526;13.390;2023-03-23T01:17:18;14.30;99.90
12254;DHT22;6189;52.526;13.390;2023-03-23T01:20:07;14.40;99.90
12254;DHT22;6189;52.526;13.390;2023-03-23T01:22:53;14.40;99.90
12254;DHT22;6189;52.526;13.390;2023-03-23T01:25:44;14.30;99.90
12254;DHT22;6189;52.526;13.390;2023-03-23T01:28:30;14.40;99.90
12254;DHT22;6189;52.526;13.390;2023-03-23T01:31:17;14.40;99.90
12254;DHT22;6189;52.526;13.390;2023-03-23T01:34:03;14.40;99.90
12254;DHT22;6189;52.526;13.390;2023-03-23T01:36:50;14.30;99.90
12254;DHT22;6189;52.526;13.390;2023-03-23T01:39:36;14.20;99.90
12254;DHT22;6189;52.526;13.390;2023-03-23T01:42:22;14.20;99.90
12254;DHT22;6189;52.526;13.390;2023-03-23T01:45:27;14.20;99.90
12254;DHT22;6189;52.526;13.390;2023-03-23T01:48:17;14.30;99.90
12254;DHT22;6189;52.526;13.390;2023-03-23T01:51:06;14.30;99.90
12254;DHT22;6189;52.526;13.390;2023-03-23T01:53:57;14.20;99.90
12254;DHT22;6189;52.526;13.390;2023-03-23T01:56:47;14.30;99.90
12254;DHT22;6189;52.526;13.390;2023-03-23T01:59:34;14.30;99.90
12254;DHT22;6189;52.526;13.390;2023-03-23T02:02:22;14.30;99.90
12254;DHT22;6189;52.526;13.390;2023-03-23T02:05:12;14.30;99.90
12254;DHT22;6189;52.526;13.390;2023-03-23T02:08:00;14.30;99.90
12254;DHT22;6189;52.526;13.390;2023-03-23T02:10:48;14.20;99.90
12254;DHT22;6189;52.526;13.390;2023-03-23T02:13:34;14.10;99.90
12254;DHT22;6189;52.526;13.390;2023-03-23T02:16:30;14.20;99.90
12254;DHT22;6189;52.526;13.390;2023-03-23T02:19:42;14.20;99.90
12254;DHT22;6189;52.526;13.390;2023-03-23T02:26:11;14.10;99.90
12254;DHT22;6189;52.526;13.390;2023-03-23T02:32:44;14.10;99.90
12254;DHT22;6189;52.526;13.390;2023-03-23T02:35:35;14.00;99.90
12254;DHT22;6189;52.526;13.390;2023-03-23T02:38:27;14.10;99.90
12254;DHT22;6189;52.526;13.390;2023-03-23T02:41:14;14.10;99.90
12254;DHT22;6189;52.526;13.390;2023-03-23T02:44:02;14.10;99.90
12254;DHT22;6189;52.526;13.390;2023-03-23T02:46:48;14.00;99.90
12254;DHT22;6189;52.526;13.390;2023-03-23T02:49:36;14.10;99.90
12254;DHT22;6189;52.526;13.390;2023-03-23T02:52:26;14.20;99.90
12254;DHT22;6189;52.526;13.390;2023-03-23T02:55:13;14.10;99.90
12254;DHT22;6189;52.526;13.390;2023-03-23T02:58:00;14.20;99.90
12254;DHT22;6189;52.526;13.390;2023-03-23T03:00:48;14.10;99.90
12254;DHT22;6189;52.526;13.390;2023-03-23T03:03:34;14.20;99.90
12254;DHT22;6189;52.526;13.390;2023-03-23T03:06:26;14.10;99.90
12254;DHT22;6189;52.526;13.390;2023-03-23T03:09:18;14.20;99.90
12254;DHT22;6189;52.526;13.390;2023-03-23T03:12:10;14.20;99.90
12254;DHT22;6189;52.526;13.390;2023-03-23T03:15:06;14.30;99.90
12254;DHT22;6189;52.526;13.390;2023-03-23T03:18:00;14.20;99.90
12254;DHT22;6189;52.526;13.390;2023-03-23T03:20:50;14.20;99.90
12254;DHT22;6189;52.526;13.390;2023-03-23T03:23:39;14.20;99.90
12254;DHT22;6189;52.526;13.390;2023-03-23T03:26:28;14.20;99.90
12254;DHT22;6189;52.526;13.390;2023-03-23T03:29:16;14.20;99.90
12254;DHT22;6189;52.526;13.390;2023-03-23T03:32:06;14.30;99.90
12254;DHT22;6189;52.526;13.390;2023-03-23T03:34:54;14.50;99.90
12254;DHT22;6189;52.526;13.390;2023-03-23T03:37:40;14.40;99.90
12254;DHT22;6189;52.526;13.390;2023-03-23T03:40:25;14.40;99.90
12254;DHT22;6189;52.526;13.390;2023-03-23T03:43:12;14.40;99.90
12254;DHT22;6189;52.526;13.390;2023-03-23T03:45:58;14.40;99.90
12254;DHT22;6189;52.526;13.390;2023-03-23T03:48:43;14.50;99.90
12254;DHT22;6189;52.526;13.390;2023-03-23T03:51:30;14.50;99.90
12254;DHT22;6189;52.526;13.390;2023-03-23T03:54:15;14.30;99.90
12254;DHT22;6189;52.526;13.390;2023-03-23T03:57:01;14.40;99.90
12254;DHT22;6189;52.526;13.390;2023-03-23T03:59:49;14.50;99.90
12254;DHT22;6189;52.526;13.390;2023-03-23T04:02:34;14.50;99.90
12254;DHT22;6189;52.526;13.390;2023-03-23T04:05:21;14.50;99.90
12254;DHT22;6189;52.526;13.390;2023-03-23T04:08:06;14.70;99.90
12254;DHT22;6189;52.526;13.390;2023-03-23T04:10:52;14.50;99.90
12254;DHT22;6189;52.526;13.390;2023-03-23T04:13:38;14.50;99.90
12254;DHT22;6189;52.526;13.390;2023-03-23T04:16:25;14.60;99.90
12254;DHT22;6189;52.526;13.390;2023-03-23T04:19:13;14.70;99.90
12254;DHT22;6189;52.526;13.390;2023-03-23T04:21:59;14.70;99.90
12254;DHT22;6189;52.526;13.390;2023-03-23T04:24:45;14.70;99.90
12254;DHT22;6189;52.526;13.390;2023-03-23T04:27:31;14.70;99.90
12254;DHT22;6189;52.526;13.390;2023-03-23T04:30:18;14.70;99.90
12254;DHT22;6189;52.526;13.390;2023-03-23T04:33:06;14.70;99.90
12254;DHT22;6189;52.526;13.390;2023-03-23T04:35:51;14.70;99.90
12254;DHT22;6189;52.526;13.390;2023-03-23T04:38:37;14.80;99.90
12254;DHT22;6189;52.526;13.390;2023-03-23T04:41:25;14.80;99.90
12254;DHT22;6189;52.526;13.390;2023-03-23T04:44:11;14.80;99.90
12254;DHT22;6189;52.526;13.390;2023-03-23T04:47:01;14.90;99.90
12254;DHT22;6189;52.526;13.390;2023-03-23T04:49:48;14.90;99.90
12254;DHT22;6189;52.526;13.390;2023-03-23T04:52:35;14.90;99.90
12254;DHT22;6189;52.526;13.390;2023-03-23T04:55:22;14.80;99.90
12254;DHT22;6189;52.526;13.390;2023-03-23T04:58:07;14.80;99.90
12254;DHT22;6189;52.526;13.390;2023-03-23T05:00:54;14.90;99.90
12254;DHT22;6189;52.526;13.390;2023-03-23T05:03:40;14.90;99.90
12254;DHT22;6189;52.526;13.390;2023-03-23T05:06:27;14.70;99.90
12254;DHT22;6189;52.526;13.390;2023-03-23T05:09:12;14.70;99.90
12254;DHT22;6189;52.526;13.390;2023-03-23T05:12:02;14.70;99.90
12254;DHT22;6189;52.526;13.390;2023-03-23T05:14:48;14.70;99.90
12254;DHT22;6189;52.526;13.390;2023-03-23T05:17:34;14.60;99.90
12254;DHT22;6189;52.526;13.390;2023-03-23T05:20:20;14.60;99.90
12254;DHT22;6189;52.526;13.390;2023-03-23T05:23:07;14.70;99.90
12254;DHT22;6189;52.526;13.390;2023-03-23T05:25:53;14.70;99.90
12254;DHT22;6189;52.526;13.390;2023-03-23T05:28:39;14.60;99.90
12254;DHT22;6189;52.526;13.390;2023-03-23T05:31:26;14.70;99.90
12254;DHT22;6189;52.526;13.390;2023-03-23T05:34:11;14.40;99.90
12254;DHT22;6189;52.526;13.390;2023-03-23T05:36:57;14.40;99.90
12254;DHT22;6189;52.526;13.390;2023-03-23T05:39:44;14.40;99.90
12254;DHT22;6189;52.526;13.390;2023-03-23T05:42:30;14.40;99.90
12254;DHT22;6189;52.526;13.390;2023-03-23T05:45:15;14.40;99.90
12254;DHT22;6189;52.526;13.390;2023-03-23T05:48:01;14.50;99.90
12254;DHT22;6189;52.526;13.390;2023-03-23T05:50:47;14.50;99.90
12254;DHT22;6189;52.526;13.390;2023-03-23T05:53:33;14.50;99.90
12254;DHT22;6189;52.526;13.390;2023-03-23T05:56:20;14.40;99.90
12254;DHT22;6189;52.526;13.390;2023-03-23T05:59:07;14.10;99.90
12254;DHT22;6189;52.526;13.390;2023-03-23T06:01:52;14.00;99.90
12254;DHT22;6189;52.526;13.390;2023-03-23T06:04:39;14.10;99.90
12254;DHT22;6189;52.526;13.390;2023-03-23T06:07:25;14.20;99.90
12254;DHT22;6189;52.526;13.390;2023-03-23T06:10:10;14.10;99.90
12254;DHT22;6189;52.526;13.390;2023-03-23T06:12:58;13.90;99.90
12254;DHT22;6189;52.526;13.390;2023-03-23T06:15:43;13.90;99.90
12254;DHT22;6189;52.526;13.390;2023-03-23T06:18:30;14.00;99.90
12254;DHT22;6189;52.526;13.390;2023-03-23T06:21:17;13.90;99.90
12254;DHT22;6189;52.526;13.390;2023-03-23T06:24:04;14.00;99.90
12254;DHT22;6189;52.526;13.390;2023-03-23T06:26:49;14.00;99.90
12254;DHT22;6189;52.526;13.390;2023-03-23T06:29:37;13.70;99.90
12254;DHT22;6189;52.526;13.390;2023-03-23T06:32:25;13.70;99.90
12254;DHT22;6189;52.526;13.390;2023-03-23T06:35:13;13.80;99.90
12254;DHT22;6189;52.526;13.390;2023-03-23T06:37:59;13.90;99.90
12254;DHT22;6189;52.526;13.390;2023-03-23T06:40:45;14.00;99.90
12254;DHT22;6189;52.526;13.390;2023-03-23T06:43:32;14.10;99.90
12254;DHT22;6189;52.526;13.390;2023-03-23T06:46:21;14.00;99.90
12254;DHT22;6189;52.526;13.390;2023-03-23T06:49:07;13.90;99.90
12254;DHT22;6189;52.526;13.390;2023-03-23T06:51:52;13.90;99.90
12254;DHT22;6189;52.526;13.390;2023-03-23T06:54:40;13.90;99.90
12254;DHT22;6189;52.526;13.390;2023-03-23T06:57:27;13.80;99.90
12254;DHT22;6189;52.526;13.390;2023-03-23T07:00:13;13.90;99.90
12254;DHT22;6189;52.526;13.390;2023-03-23T07:03:01;13.70;99.90
12254;DHT22;6189;52.526;13.390;2023-03-23T07:05:47;13.60;99.90
12254;DHT22;6189;52.526;13.390;2023-03-23T07:08:33;13.40;99.90
12254;DHT22;6189;52.526;13.390;2023-03-23T07:11:19;13.40;99.90
12254;DHT22;6189;52.526;13.390;2023-03-23T07:14:05;13.40;99.90
12254;DHT22;6189;52.526;13.390;2023-03-23T07:16:51;13.50;99.90
12254;DHT22;6189;52.526;13.390;2023-03-23T07:19:38;13.50;99.90
12254;DHT22;6189;52.526;13.390;2023-03-23T07:22:24;13.50;99.90
12254;DHT22;6189;52.526;13.390;2023-03-23T07:25:10;13.60;99.90
12254;DHT22;6189;52.526;13.390;2023-03-23T07:27:56;13.50;99.90
12254;DHT22;6189;52.526;13.390;2023-03-23T07:30:42;13.60;99.90
12254;DHT22;6189;52.526;13.390;2023-03-23T07:33:28;13.60;99.90
12254;DHT22;6189;52.526;13.390;2023-03-23T07:36:15;13.60;99.90
12254;DHT22;6189;52.526;13.390;2023-03-23T07:39:00;13.60;99.90
12254;DHT22;6189;52.526;13.390;2023-03-23T07:41:46;13.50;99.90
12254;DHT22;6189;52.526;13.390;2023-03-23T07:44:32;13.50;99.90
12254;DHT22;6189;52.526;13.390;2023-03-23T07:47:17;13.60;99.90
12254;DHT22;6189;52.526;13.390;2023-03-23T07:50:04;13.60;99.90
12254;DHT22;6189;52.526;13.390;2023-03-23T07:52:53;13.50;99.90
12254;DHT22;6189;52.526;13.390;2023-03-23T07:55:39;13.60;99.90
12254;DHT22;6189;52.526;13.390;2023-03-23T07:58:25;13.50;99.90
12254;DHT22;6189;52.526;13.390;2023-03-23T08:01:12;13.50;99.90
12254;DHT22;6189;52.526;13.390;2023-03-23T08:03:58;13.40;99.90
12254;DHT22;6189;52.526;13.390;2023-03-23T08:06:44;13.40;99.90
12254;DHT22;6189;52.526;13.390;2023-03-23T08:09:31;13.40;99.90
12254;DHT22;6189;52.526;13.390;2023-03-23T08:12:17;13.50;99.90
12254;DHT22;6189;52.526;13.390;2023-03-23T08:15:03;13.60;99.90
12254;DHT22;6189;52.526;13.390;2023-03-23T08:17:50;13.70;99.90
12254;DHT22;6189;52.526;13.390;2023-03-23T08:20:36;13.70;99.90
12254;DHT22;6189;52.526;13.390;2023-03-23T08:23:22;13.70;99.90
12254;DHT22;6189;52.526;13.390;2023-03-23T08:26:09;13.70;99.90
12254;DHT22;6189;52.526;13.390;2023-03-23T08:28:55;13.70;99.90
12254;DHT22;6189;52.526;13.390;2023-03-23T08:31:41;13.60;99.90
12254;DHT22;6189;52.526;13.390;2023-03-23T08:34:29;13.60;99.90
12254;DHT22;6189;52.526;13.390;2023-03-23T08:37:15;13.50;99.90
12254;DHT22;6189;52.526;13.390;2023-03-23T08:40:01;13.50;99.90
12254;DHT22;6189;52.526;13.390;2023-03-23T08:42:53;13.40;99.90
12254;DHT22;6189;52.526;13.390;2023-03-23T08:45:38;13.40;99.90
12254;DHT22;6189;52.526;13.390;2023-03-23T08:48:25;13.50;99.90
12254;DHT22;6189;52.526;13.390;2023-03-23T08:51:10;13.60;99.90
12254;DHT22;6189;52.526;13.390;2023-03-23T08:53:56;13.80;99.90
12254;DHT22;6189;52.526;13.390;2023-03-23T08:56:43;14.00;99.90
12254;DHT22;6189;52.526;13.390;2023-03-23T08:59:30;13.90;99.90
12254;DHT22;6189;52.526;13.390;2023-03-23T09:02:16;13.80;99.90
12254;DHT22;6189;52.526;13.390;2023-03-23T09:05:02;13.80;99.90
12254;DHT22;6189;52.526;13.390;2023-03-23T09:07:49;13.90;99.90
12254;DHT22;6189;52.526;13.390;2023-03-23T09:10:35;13.90;99.90
12254;DHT22;6189;52.526;13.390;2023-03-23T09:13:21;13.90;99.90
12254;DHT22;6189;52.526;13.390;2023-03-23T09:16:09;14.00;99.90
12254;DHT22;6189;52.526;13.390;2023-03-23T09:18:54;14.00;99.90
12254;DHT22;6189;52.526;13.390;2023-03-23T09:21:41;14.10;99.90
12254;DHT22;6189;52.526;13.390;2023-03-23T09:24:26;14.10;99.90
12254;DHT22;6189;52.526;13.390;2023-03-23T09:27:12;14.20;99.90
12254;DHT22;6189;52.526;13.390;2023-03-23T09:29:59;14.10;99.90
12254;DHT22;6189;52.526;13.390;2023-03-23T09:32:46;14.10;99.90
12254;DHT22;6189;52.526;13.390;2023-03-23T09:35:33;14.20;99.90
12254;DHT22;6189;52.526;13.390;2023-03-23T09:38:19;14.50;99.90
12254;DHT22;6189;52.526;13.390;2023-03-23T09:41:16;14.60;99.90
12254;DHT22;6189;52.526;13.390;2023-03-23T09:44:09;14.60;99.90
12254;DHT22;6189;52.526;13.390;2023-03-23T09:47:01;14.70;99.90
12254;DHT22;6189;52.526;13.390;2023-03-23T09:49:55;14.80;99.90
12254;DHT22;6189;52.526;13.390;2023-03-23T09:52:47;14.90;99.90
12254;DHT22;6189;52.526;13.390;2023-03-23T09:55:35;14.90;99.90
12254;DHT22;6189;52.526;13.390;2023-03-23T09:58:25;14.90;99.90
12254;DHT22;6189;52.526;13.390;2023-03-23T10:01:17;15.00;99.90
12254;DHT22;6189;52.526;13.390;2023-03-23T10:04:09;15.30;99.90
12254;DHT22;6189;52.526;13.390;2023-03-23T10:06:59;15.30;99.90
12254;DHT22;6189;52.526;13.390;2023-03-23T10:09:47;15.30;99.90
12254;DHT22;6189;52.526;13.390;2023-03-23T10:12:38;15.30;99.90
12254;DHT22;6189;52.526;13.390;2023-03-23T10:15:27;15.30;99.90
12254;DHT22;6189;52.526;13.390;2023-03-23T10:18:18;15.10;99.90
12254;DHT22;6189;52.526;13.390;2023-03-23T10:21:08;15.00;99.90
12254;DHT22;6189;52.526;13.390;2023-03-23T10:23:59;15.20;99.90
12254;DHT22;6189;52.526;13.390;2023-03-23T10:27:02;15.20;99.90
12254;DHT22;6189;52.526;13.390;2023-03-23T10:29:52;15.40;99.90
12254;DHT22;6189;52.526;13.390;2023-03-23T10:32:43;15.30;99.90
12254;DHT22;6189;52.526;13.390;2023-03-23T10:35:34;15.40;99.90
12254;DHT22;6189;52.526;13.390;2023-03-23T10:38:24;15.50;99.90
12254;DHT22;6189;52.526;13.390;2023-03-23T10:41:16;15.60;99.90
12254;DHT22;6189;52.526;13.390;2023-03-23T10:44:09;15.60;99.90
12254;DHT22;6189;52.526;13.390;2023-03-23T10:46:58;15.60;99.90
12254;DHT22;6189;52.526;13.390;2023-03-23T10:49:48;15.80;99.90
12254;DHT22;6189;52.526;13.390;2023-03-23T10:52:36;15.90;99.90
12254;DHT22;6189;52.526;13.390;2023-03-23T10:55:23;15.90;99.90
12254;DHT22;6189;52.526;13.390;2023-03-23T10:58:23;15.80;99.90
12254;DHT22;6189;52.526;13.390;2023-03-23T11:01:10;15.70;99.90
12254;DHT22;6189;52.526;13.390;2023-03-23T11:03:57;15.70;99.90
12254;DHT22;6189;52.526;13.390;2023-03-23T11:06:46;15.60;99.90
12254;DHT22;6189;52.526;13.390;2023-03-23T11:09:35;15.60;99.90
12254;DHT22;6189;52.526;13.390;2023-03-23T11:12:22;15.60;99.90
12254;DHT22;6189;52.526;13.390;2023-03-23T11:15:23;15.60;99.90
12254;DHT22;6189;52.526;13.390;2023-03-23T11:18:12;15.50;99.90
12254;DHT22;6189;52.526;13.390;2023-03-23T11:20:58;15.60;99.90
12254;DHT22;6189;52.526;13.390;2023-03-23T11:23:49;15.70;99.90
12254;DHT22;6189;52.526;13.390;2023-03-23T11:26:36;15.60;99.90
12254;DHT22;6189;52.526;13.390;2023-03-23T11:29:25;15.50;99.90
12254;DHT22;6189;52.526;13.390;2023-03-23T11:32:14;15.60;99.90
12254;DHT22;6189;52.526;13.390;2023-03-23T11:35:03;15.60;99.90
12254;DHT22;6189;52.526;13.390;2023-03-23T11:37:52;15.60;99.90
12254;DHT22;6189;52.526;13.390;2023-03-23T11:40:46;15.80;99.90
12254;DHT22;6189;52.526;13.390;2023-03-23T11:43:37;15.70;99.90
12254;DHT22;6189;52.526;13.390;2023-03-23T11:46:33;15.80;99.90
12254;DHT22;6189;52.526;13.390;2023-03-23T11:49:28;15.90;99.90
12254;DHT22;6189;52.526;13.390;2023-03-23T11:52:21;15.90;99.90
12254;DHT22;6189;52.526;13.390;2023-03-23T11:55:14;16.20;99.90
12254;DHT22;6189;52.526;13.390;2023-03-23T11:58:07;16.20;99.90
12254;DHT22;6189;52.526;13.390;2023-03-23T12:00:58;16.40;99.90
12254;DHT22;6189;52.526;13.390;2023-03-23T12:07:13;16.40;99.90
12254;DHT22;6189;52.526;13.390;2023-03-23T12:10:10;16.50;99.90
12254;DHT22;6189;52.526;13.390;2023-03-23T12:13:18;16.40;99.90
12254;DHT22;6189;52.526;13.390;2023-03-23T12:16:17;16.40;99.90
12254;DHT22;6189;52.526;13.390;2023-03-23T12:19:11;16.20;99.90
12254;DHT22;6189;52.526;13.390;2023-03-23T12:22:04;16.30;99.90
12254;DHT22;6189;52.526;13.390;2023-03-23T12:25:08;16.30;99.90
12254;DHT22;6189;52.526;13.390;2023-03-23T12:28:06;16.20;99.90
12254;DHT22;6189;52.526;13.390;2023-03-23T12:31:01;16.20;99.90
12254;DHT22;6189;52.526;13.390;2023-03-23T12:33:54;16.10;99.90
12254;DHT22;6189;52.526;13.390;2023-03-23T12:36:53;16.20;99.90
12254;DHT22;6189;52.526;13.390;2023-03-23T12:40:03;16.20;99.90
12254;DHT22;6189;52.526;13.390;2023-03-23T12:42:56;16.30;99.90
12254;DHT22;6189;52.526;13.390;2023-03-23T12:45:55;16.30;99.90
12254;DHT22;6189;52.526;13.390;2023-03-23T12:48:46;16.30;99.90
12254;DHT22;6189;52.526;13.390;2023-03-23T12:51:39;16.30;99.90
12254;DHT22;6189;52.526;13.390;2023-03-23T12:54:31;16.30;99.90
12254;DHT22;6189;52.526;13.390;2023-03-23T12:57:21;16.30;99.90
12254;DHT22;6189;52.526;13.390;2023-03-23T13:00:17;16.40;99.90
12254;DHT22;6189;52.526;13.390;2023-03-23T13:03:20;16.50;99.90
12254;DHT22;6189;52.526;13.390;2023-03-23T13:06:15;16.50;99.90
12254;DHT22;6189;52.526;13.390;2023-03-23T13:09:07;16.80;99.90
12254;DHT22;6189;52.526;13.390;2023-03-23T13:11:58;16.90;99.90
12254;DHT22;6189;52.526;13.390;2023-03-23T13:14:55;17.00;99.90
12254;DHT22;6189;52.526;13.390;2023-03-23T13:17:46;17.00;99.90
12254;DHT22;6189;52.526;13.390;2023-03-23T13:20:40;17.10;99.90
12254;DHT22;6189;52.526;13.390;2023-03-23T13:23:31;17.20;99.90
12254;DHT22;6189;52.526;13.390;2023-03-23T13:26:19;17.20;99.90
12254;DHT22;6189;52.526;13.390;2023-03-23T13:29:09;17.20;99.90
12254;DHT22;6189;52.526;13.390;2023-03-23T13:32:11;17.30;99.90
12254;DHT22;6189;52.526;13.390;2023-03-23T13:35:00;17.20;99.90
12254;DHT22;6189;52.526;13.390;2023-03-23T13:37:48;17.30;99.90
12254;DHT22;6189;52.526;13.390;2023-03-23T13:40:35;17.30;99.90
12254;DHT22;6189;52.526;13.390;2023-03-23T13:43:27;17.40;99.90
12254;DHT22;6189;52.526;13.390;2023-03-23T13:46:25;17.40;99.90
12254;DHT22;6189;52.526;13.390;2023-03-23T13:49:19;17.30;99.90
12254;DHT22;6189;52.526;13.390;2023-03-23T13:52:21;17.30;99.90
12254;DHT22;6189;52.526;13.390;2023-03-23T13:55:20;17.30;99.90
12254;DHT22;6189;52.526;13.390;2023-03-23T13:58:22;17.20;99.90
12254;DHT22;6189;52.526;13.390;2023-03-23T14:01:12;17.20;99.90
12254;DHT22;6189;52.526;13.390;2023-03-23T14:04:00;17.10;99.90
12254;DHT22;6189;52.526;13.390;2023-03-23T14:06:51;17.20;99.90
12254;DHT22;6189;52.526;13.390;2023-03-23T14:09:39;17.20;99.90
12254;DHT22;6189;52.526;13.390;2023-03-23T14:12:28;17.10;99.90
12254;DHT22;6189;52.526;13.390;2023-03-23T14:15:15;17.10;99.90
12254;DHT22;6189;52.526;13.390;2023-03-23T14:18:03;17.20;99.90
12254;DHT22;6189;52.526;13.390;2023-03-23T14:20:49;17.20;99.90
12254;DHT22;6189;52.526;13.390;2023-03-23T14:23:36;17.30;99.90
12254;DHT22;6189;52.526;13.390;2023-03-23T14:26:22;17.30;99.90
12254;DHT22;6189;52.526;13.390;2023-03-23T14:29:11;17.50;99.90
12254;DHT22;6189;52.526;13.390;2023-03-23T14:31:58;17.50;99.90
12254;DHT22;6189;52.526;13.390;2023-03-23T14:34:47;17.50;99.90
12254;DHT22;6189;52.526;13.390;2023-03-23T14:37:33;17.50;99.90
12254;DHT22;6189;52.526;13.390;2023-03-23T14:40:22;17.40;99.90
12254;DHT22;6189;52.526;13.390;2023-03-23T14:43:09;17.30;99.90
12254;DHT22;6189;52.526;13.390;2023-03-23T14:45:58;17.30;99.90
12254;DHT22;6189;52.526;13.390;2023-03-23T14:48:45;17.30;99.90
12254;DHT22;6189;52.526;13.390;2023-03-23T14:51:31;17.30;99.90
12254;DHT22;6189;52.526;13.390;2023-03-23T14:54:21;17.10;99.90
12254;DHT22;6189;52.526;13.390;2023-03-23T14:57:14;17.00;99.90
12254;DHT22;6189;52.526;13.390;2023-03-23T15:00:00;17.20;99.90
12254;DHT22;6189;52.526;13.390;2023-03-23T15:02:49;17.20;99.90
12254;DHT22;6189;52.526;13.390;2023-03-23T15:05:40;17.20;99.90
12254;DHT22;6189;52.526;13.390;2023-03-23T15:08:28;17.20;99.90
12254;DHT22;6189;52.526;13.390;2023-03-23T15:11:23;17.10;99.90
12254;DHT22;6189;52.526;13.390;2023-03-23T15:14:16;17.10;99.90
12254;DHT22;6189;52.526;13.390;2023-03-23T15:17:02;17.10;99.90
12254;DHT22;6189;52.526;13.390;2023-03-23T15:19:48;17.20;99.90
12254;DHT22;6189;52.526;13.390;2023-03-23T15:22:35;17.30;99.90
12254;DHT22;6189;52.526;13.390;2023-03-23T15:25:22;17.20;99.90
12254;DHT22;6189;52.526;13.390;2023-03-23T15:28:16;17.10;99.90
12254;DHT22;6189;52.526;13.390;2023-03-23T15:31:05;17.10;99.90
12254;DHT22;6189;52.526;13.390;2023-03-23T15:33:55;17.10;99.90
12254;DHT22;6189;52.526;13.390;2023-03-23T15:36:42;17.10;99.90
12254;DHT22;6189;52.526;13.390;2023-03-23T15:39:28;17.20;99.90
12254;DHT22;6189;52.526;13.390;2023-03-23T15:42:23;17.30;99.90
12254;DHT22;6189;52.526;13.390;2023-03-23T15:45:25;17.20;99.90
12254;DHT22;6189;52.526;13.390;2023-03-23T15:48:13;17.20;99.90
12254;DHT22;6189;52.526;13.390;2023-03-23T15:50:59;17.10;99.90
12254;DHT22;6189;52.526;13.390;2023-03-23T15:53:45;17.10;99.90
12254;DHT22;6189;52.526;13.390;2023-03-23T15:56:30;17.10;99.90
12254;DHT22;6189;52.526;13.390;2023-03-23T15:59:16;17.00;99.90
12254;DHT22;6189;52.526;13.390;2023-03-23T16:02:02;17.00;99.90
12254;DHT22;6189;52.526;13.390;2023-03-23T16:04:50;17.00;99.90
12254;DHT22;6189;52.526;13.390;2023-03-23T16:07:36;17.00;99.90
12254;DHT22;6189;52.526;13.390;2023-03-23T16:10:23;17.10;99.90
12254;DHT22;6189;52.526;13.390;2023-03-23T16:13:09;17.10;99.90
12254;DHT22;6189;52.526;13.390;2023-03-23T16:15:55;17.10;99.90
12254;DHT22;6189;52.526;13.390;2023-03-23T16:18:41;17.00;99.90
12254;DHT22;6189;52.526;13.390;2023-03-23T16:21:28;17.00;99.90
12254;DHT22;6189;52.526;13.390;2023-03-23T16:24:14;17.00;99.90
12254;DHT22;6189;52.526;13.390;2023-03-23T16:27:00;17.10;99.90
12254;DHT22;6189;52.526;13.390;2023-03-23T16:29:46;17.10;99.90
12254;DHT22;6189;52.526;13.390;2023-03-23T16:32:31;17.10;99.90
12254;DHT22;6189;52.526;13.390;2023-03-23T16:35:18;17.00;99.90
12254;DHT22;6189;52.526;13.390;2023-03-23T16:38:06;17.10;99.90
12254;DHT22;6189;52.526;13.390;2023-03-23T16:40:51;17.20;99.50
12254;DHT22;6189;52.526;13.390;2023-03-23T16:43:37;17.20;99.30
12254;DHT22;6189;52.526;13.390;2023-03-23T16:46:23;17.10;99.40
12254;DHT22;6189;52.526;13.390;2023-03-23T16:49:08;16.90;99.90
12254;DHT22;6189;52.526;13.390;2023-03-23T16:51:54;16.40;99.90
12254;DHT22;6189;52.526;13.390;2023-03-23T16:54:41;15.70;99.90
12254;DHT22;6189;52.526;13.390;2023-03-23T16:57:26;15.50;99.90
12254;DHT22;6189;52.526;13.390;2023-03-23T17:00:15;15.50;99.90
12254;DHT22;6189;52.526;13.390;2023-03-23T17:03:03;15.90;99.90
12254;DHT22;6189;52.526;13.390;2023-03-23T17:05:50;15.50;99.90
12254;DHT22;6189;52.526;13.390;2023-03-23T17:08:36;15.10;99.90
12254;DHT22;6189;52.526;13.390;2023-03-23T17:11:23;15.00;99.90
12254;DHT22;6189;52.526;13.390;2023-03-23T17:14:09;15.00;99.90
12254;DHT22;6189;52.526;13.390;2023-03-23T17:16:55;15.00;99.90
12254;DHT22;6189;52.526;13.390;2023-03-23T17:19:41;15.30;99.90
12254;DHT22;6189;52.526;13.390;2023-03-23T17:22:27;15.20;99.90
12254;DHT22;6189;52.526;13.390;2023-03-23T17:25:13;15.10;99.90
12254;DHT22;6189;52.526;13.390;2023-03-23T17:28:00;14.90;99.90
12254;DHT22;6189;52.526;13.390;2023-03-23T17:30:46;15.00;99.90
12254;DHT22;6189;52.526;13.390;2023-03-23T17:33:32;15.40;99.90
12254;DHT22;6189;52.526;13.390;2023-03-23T17:36:18;15.70;99.90
12254;DHT22;6189;52.526;13.390;2023-03-23T17:39:03;15.30;99.90
12254;DHT22;6189;52.526;13.390;2023-03-23T17:41:52;15.00;99.90
12254;DHT22;6189;52.526;13.390;2023-03-23T17:44:39;14.70;99.90
12254;DHT22;6189;52.526;13.390;2023-03-23T17:47:25;14.90;99.90
12254;DHT22;6189;52.526;13.390;2023-03-23T17:50:11;14.60;99.90
12254;DHT22;6189;52.526;13.390;2023-03-23T17:52:56;14.60;99.90
12254;DHT22;6189;52.526;13.390;2023-03-23T17:55:45;14.70;99.90